sensor_id;sensor_type;location;lat;lon;timestamp;P1;durP1;ratioP1;P2;durP2;ratioP2
13327;SDS011;6733;51.044;3.746;2023-02-19T00:01:07;11.80;;;9.70;;
13327;SDS011;6733;51.044;3.746;2023-02-19T00:03:35;14.90;;;9.43;;
13327;SDS011;6733;51.044;3.746;2023-02-19T00:06:03;11.17;;;10.00;;
13327;SDS011;6733;51.044;3.746;2023-02-19T00:08:31;11.87;;;8.97;;
13327;SDS011;6733;51.044;3.746;2023-02-19T00:11:02;12.63;;;9.27;;
13327;SDS011;6733;51.044;3.746;2023-02-19T00:13:49;10.67;;;8.03;;
13327;SDS011;6733;51.044;3.746;2023-02-19T00:16:18;11.63;;;7.70;;
13327;SDS011;6733;51.044;3.746;2023-02-19T00:18:54;10.33;;;7.87;;
13327;SDS011;6733;51.044;3.746;2023-02-19T00:21:22;13.10;;;6.87;;
13327;SDS011;6733;51.044;3.746;2023-02-19T00:23:49;11.97;;;6.53;;
13327;SDS011;6733;51.044;3.746;2023-02-19T00:26:16;14.03;;;7.47;;
13327;SDS011;6733;51.044;3.746;2023-02-19T00:28:43;12.70;;;7.10;;
13327;SDS011;6733;51.044;3.746;2023-02-19T00:31:20;9.83;;;6.43;;
13327;SDS011;6733;51.044;3.746;2023-02-19T00:33:52;10.03;;;5.20;;
13327;SDS011;6733;51.044;3.746;2023-02-19T00:36:20;10.33;;;4.80;;
13327;SDS011;6733;51.044;3.746;2023-02-19T00:38:47;10.77;;;5.53;;
13327;SDS011;6733;51.044;3.746;2023-02-19T00:41:14;15.27;;;5.73;;
13327;SDS011;6733;51.044;3.746;2023-02-19T00:43:44;7.27;;;4.57;;
13327;SDS011;6733;51.044;3.746;2023-02-19T00:46:19;8.73;;;5.10;;
13327;SDS011;6733;51.044;3.746;2023-02-19T00:48:50;10.97;;;5.30;;
13327;SDS011;6733;51.044;3.746;2023-02-19T00:51:17;10.80;;;4.67;;
13327;SDS011;6733;51.044;3.746;2023-02-19T00:53:45;8.70;;;4.57;;
13327;SDS011;6733;51.044;3.746;2023-02-19T00:56:11;11.67;;;4.80;;
13327;SDS011;6733;51.044;3.746;2023-02-19T00:58:37;8.93;;;4.60;;
13327;SDS011;6733;51.044;3.746;2023-02-19T01:01:04;11.67;;;4.83;;
13327;SDS011;6733;51.044;3.746;2023-02-19T01:03:32;10.10;;;4.53;;
13327;SDS011;6733;51.044;3.746;2023-02-19T01:05:58;8.60;;;4.37;;
13327;SDS011;6733;51.044;3.746;2023-02-19T01:08:25;8.83;;;4.10;;
13327;SDS011;6733;51.044;3.746;2023-02-19T01:10:52;13.97;;;5.27;;
13327;SDS011;6733;51.044;3.746;2023-02-19T01:13:18;12.50;;;4.83;;
13327;SDS011;6733;51.044;3.746;2023-02-19T01:15:44;8.97;;;4.47;;
13327;SDS011;6733;51.044;3.746;2023-02-19T01:18:11;9.80;;;4.17;;
13327;SDS011;6733;51.044;3.746;2023-02-19T01:20:39;9.67;;;5.17;;
13327;SDS011;6733;51.044;3.746;2023-02-19T01:23:06;13.03;;;5.03;;
13327;SDS011;6733;51.044;3.746;2023-02-19T01:25:32;15.10;;;4.93;;
13327;SDS011;6733;51.044;3.746;2023-02-19T01:27:58;10.10;;;4.30;;
13327;SDS011;6733;51.044;3.746;2023-02-19T01:30:25;11.47;;;4.33;;
13327;SDS011;6733;51.044;3.746;2023-02-19T01:32:51;9.80;;;4.20;;
13327;SDS011;6733;51.044;3.746;2023-02-19T01:35:17;8.20;;;4.70;;
13327;SDS011;6733;51.044;3.746;2023-02-19T01:37:43;8.37;;;3.67;;
13327;SDS011;6733;51.044;3.746;2023-02-19T01:40:09;8.40;;;3.83;;
13327;SDS011;6733;51.044;3.746;2023-02-19T01:42:36;8.73;;;3.63;;
13327;SDS011;6733;51.044;3.746;2023-02-19T01:45:27;10.80;;;3.73;;
13327;SDS011;6733;51.044;3.746;2023-02-19T01:48:05;8.87;;;3.60;;
13327;SDS011;6733;51.044;3.746;2023-02-19T01:50:38;8.57;;;4.30;;
13327;SDS011;6733;51.044;3.746;2023-02-19T01:53:25;9.13;;;3.60;;
13327;SDS011;6733;51.044;3.746;2023-02-19T01:55:55;10.33;;;4.20;;
13327;SDS011;6733;51.044;3.746;2023-02-19T01:58:24;7.50;;;4.00;;
13327;SDS011;6733;51.044;3.746;2023-02-19T02:00:54;11.33;;;3.87;;
13327;SDS011;6733;51.044;3.746;2023-02-19T02:03:20;6.23;;;3.60;;
13327;SDS011;6733;51.044;3.746;2023-02-19T02:05:53;9.90;;;4.20;;
13327;SDS011;6733;51.044;3.746;2023-02-19T02:08:24;9.47;;;4.40;;
13327;SDS011;6733;51.044;3.746;2023-02-19T02:11:10;7.53;;;3.57;;
13327;SDS011;6733;51.044;3.746;2023-02-19T02:13:36;11.20;;;3.57;;
13327;SDS011;6733;51.044;3.746;2023-02-19T02:16:11;8.97;;;3.53;;
13327;SDS011;6733;51.044;3.746;2023-02-19T02:18:42;9.23;;;4.43;;
13327;SDS011;6733;51.044;3.746;2023-02-19T02:32:39;13.20;;;4.50;;
13327;SDS011;6733;51.044;3.746;2023-02-19T02:35:52;11.63;;;3.83;;
13327;SDS011;6733;51.044;3.746;2023-02-19T02:38:27;7.17;;;4.50;;
13327;SDS011;6733;51.044;3.746;2023-02-19T02:40:56;11.93;;;3.90;;
13327;SDS011;6733;51.044;3.746;2023-02-19T02:43:23;8.10;;;3.60;;
13327;SDS011;6733;51.044;3.746;2023-02-19T02:45:49;11.87;;;4.27;;
13327;SDS011;6733;51.044;3.746;2023-02-19T02:53:40;15.53;;;4.37;;
13327;SDS011;6733;51.044;3.746;2023-02-19T02:56:36;9.30;;;4.13;;
13327;SDS011;6733;51.044;3.746;2023-02-19T02:59:06;13.87;;;4.30;;
13327;SDS011;6733;51.044;3.746;2023-02-19T03:01:58;11.40;;;3.90;;
13327;SDS011;6733;51.044;3.746;2023-02-19T03:04:59;13.83;;;4.43;;
13327;SDS011;6733;51.044;3.746;2023-02-19T03:10:32;14.37;;;4.00;;
13327;SDS011;6733;51.044;3.746;2023-02-19T03:13:08;14.43;;;4.63;;
13327;SDS011;6733;51.044;3.746;2023-02-19T03:15:57;10.93;;;4.27;;
13327;SDS011;6733;51.044;3.746;2023-02-19T03:18:53;10.13;;;3.97;;
13327;SDS011;6733;51.044;3.746;2023-02-19T03:21:41;12.90;;;4.40;;
13327;SDS011;6733;51.044;3.746;2023-02-19T03:24:10;17.20;;;4.63;;
13327;SDS011;6733;51.044;3.746;2023-02-19T03:26:56;14.63;;;4.37;;
13327;SDS011;6733;51.044;3.746;2023-02-19T03:29:25;12.07;;;4.17;;
13327;SDS011;6733;51.044;3.746;2023-02-19T03:31:55;13.40;;;3.97;;
13327;SDS011;6733;51.044;3.746;2023-02-19T03:34:26;12.40;;;4.83;;
13327;SDS011;6733;51.044;3.746;2023-02-19T03:37:05;15.30;;;4.23;;
13327;SDS011;6733;51.044;3.746;2023-02-19T03:39:37;15.17;;;3.93;;
13327;SDS011;6733;51.044;3.746;2023-02-19T03:44:41;14.87;;;3.93;;
13327;SDS011;6733;51.044;3.746;2023-02-19T03:47:15;17.27;;;4.73;;
13327;SDS011;6733;51.044;3.746;2023-02-19T03:49:50;12.10;;;4.03;;
13327;SDS011;6733;51.044;3.746;2023-02-19T03:58:21;17.40;;;3.97;;
13327;SDS011;6733;51.044;3.746;2023-02-19T04:01:08;12.27;;;3.90;;
13327;SDS011;6733;51.044;3.746;2023-02-19T04:06:31;12.60;;;3.83;;
13327;SDS011;6733;51.044;3.746;2023-02-19T04:08:59;11.20;;;4.03;;
13327;SDS011;6733;51.044;3.746;2023-02-19T04:11:28;16.47;;;4.00;;
13327;SDS011;6733;51.044;3.746;2023-02-19T04:14:00;14.23;;;4.43;;
13327;SDS011;6733;51.044;3.746;2023-02-19T04:16:34;10.70;;;3.33;;
13327;SDS011;6733;51.044;3.746;2023-02-19T04:19:05;13.63;;;3.87;;
13327;SDS011;6733;51.044;3.746;2023-02-19T04:21:35;13.47;;;4.27;;
13327;SDS011;6733;51.044;3.746;2023-02-19T04:24:05;11.27;;;3.60;;
13327;SDS011;6733;51.044;3.746;2023-02-19T04:26:39;15.80;;;4.70;;
13327;SDS011;6733;51.044;3.746;2023-02-19T04:29:06;13.30;;;3.93;;
13327;SDS011;6733;51.044;3.746;2023-02-19T04:31:32;14.07;;;4.87;;
13327;SDS011;6733;51.044;3.746;2023-02-19T04:34:01;12.77;;;3.80;;
13327;SDS011;6733;51.044;3.746;2023-02-19T04:36:28;15.37;;;4.07;;
13327;SDS011;6733;51.044;3.746;2023-02-19T04:38:56;13.03;;;4.73;;
13327;SDS011;6733;51.044;3.746;2023-02-19T04:41:22;15.23;;;4.70;;
13327;SDS011;6733;51.044;3.746;2023-02-19T04:43:48;14.37;;;3.97;;
13327;SDS011;6733;51.044;3.746;2023-02-19T04:46:14;11.03;;;3.57;;
13327;SDS011;6733;51.044;3.746;2023-02-19T04:48:40;13.80;;;4.43;;
13327;SDS011;6733;51.044;3.746;2023-02-19T04:51:07;13.27;;;3.33;;
13327;SDS011;6733;51.044;3.746;2023-02-19T04:53:35;9.73;;;3.50;;
13327;SDS011;6733;51.044;3.746;2023-02-19T04:56:11;14.90;;;3.93;;
13327;SDS011;6733;51.044;3.746;2023-02-19T04:58:39;12.00;;;3.47;;
13327;SDS011;6733;51.044;3.746;2023-02-19T05:01:06;16.83;;;3.90;;
13327;SDS011;6733;51.044;3.746;2023-02-19T05:03:33;15.10;;;3.90;;
13327;SDS011;6733;51.044;3.746;2023-02-19T05:06:06;11.47;;;4.13;;
13327;SDS011;6733;51.044;3.746;2023-02-19T05:08:34;13.80;;;4.10;;
13327;SDS011;6733;51.044;3.746;2023-02-19T05:11:01;12.83;;;4.07;;
13327;SDS011;6733;51.044;3.746;2023-02-19T05:13:28;8.33;;;3.80;;
13327;SDS011;6733;51.044;3.746;2023-02-19T05:15:56;16.13;;;4.50;;
13327;SDS011;6733;51.044;3.746;2023-02-19T05:18:24;11.20;;;3.27;;
13327;SDS011;6733;51.044;3.746;2023-02-19T05:20:51;12.20;;;4.53;;
13327;SDS011;6733;51.044;3.746;2023-02-19T05:23:17;15.03;;;3.63;;
13327;SDS011;6733;51.044;3.746;2023-02-19T05:25:44;12.30;;;4.10;;
13327;SDS011;6733;51.044;3.746;2023-02-19T05:28:11;10.90;;;3.67;;
13327;SDS011;6733;51.044;3.746;2023-02-19T05:30:44;7.47;;;3.37;;
13327;SDS011;6733;51.044;3.746;2023-02-19T05:33:11;10.93;;;3.77;;
13327;SDS011;6733;51.044;3.746;2023-02-19T05:35:56;16.33;;;3.70;;
13327;SDS011;6733;51.044;3.746;2023-02-19T05:38:23;12.70;;;3.53;;
13327;SDS011;6733;51.044;3.746;2023-02-19T05:40:49;10.37;;;3.80;;
13327;SDS011;6733;51.044;3.746;2023-02-19T05:43:16;11.73;;;3.27;;
13327;SDS011;6733;51.044;3.746;2023-02-19T05:45:42;9.50;;;2.97;;
13327;SDS011;6733;51.044;3.746;2023-02-19T05:48:09;10.80;;;3.60;;
13327;SDS011;6733;51.044;3.746;2023-02-19T05:50:36;11.00;;;3.87;;
13327;SDS011;6733;51.044;3.746;2023-02-19T05:53:03;10.00;;;3.17;;
13327;SDS011;6733;51.044;3.746;2023-02-19T05:55:32;9.47;;;3.00;;
13327;SDS011;6733;51.044;3.746;2023-02-19T05:58:00;10.83;;;3.60;;
13327;SDS011;6733;51.044;3.746;2023-02-19T06:00:26;12.07;;;3.67;;
13327;SDS011;6733;51.044;3.746;2023-02-19T06:02:52;10.10;;;3.23;;
13327;SDS011;6733;51.044;3.746;2023-02-19T06:05:19;9.03;;;3.83;;
13327;SDS011;6733;51.044;3.746;2023-02-19T06:07:45;11.83;;;3.97;;
13327;SDS011;6733;51.044;3.746;2023-02-19T06:10:11;14.70;;;3.80;;
13327;SDS011;6733;51.044;3.746;2023-02-19T06:12:38;9.17;;;3.07;;
13327;SDS011;6733;51.044;3.746;2023-02-19T06:15:04;10.60;;;3.37;;
13327;SDS011;6733;51.044;3.746;2023-02-19T06:17:31;9.87;;;3.50;;
13327;SDS011;6733;51.044;3.746;2023-02-19T06:19:58;11.10;;;3.63;;
13327;SDS011;6733;51.044;3.746;2023-02-19T06:22:25;9.87;;;3.30;;
13327;SDS011;6733;51.044;3.746;2023-02-19T06:24:52;8.13;;;3.43;;
13327;SDS011;6733;51.044;3.746;2023-02-19T06:27:18;9.60;;;2.90;;
13327;SDS011;6733;51.044;3.746;2023-02-19T06:29:44;8.17;;;3.53;;
13327;SDS011;6733;51.044;3.746;2023-02-19T06:32:10;11.13;;;3.17;;
13327;SDS011;6733;51.044;3.746;2023-02-19T06:34:36;8.73;;;3.03;;
13327;SDS011;6733;51.044;3.746;2023-02-19T06:37:02;8.53;;;3.13;;
13327;SDS011;6733;51.044;3.746;2023-02-19T06:39:28;8.83;;;3.43;;
13327;SDS011;6733;51.044;3.746;2023-02-19T06:41:55;8.03;;;3.20;;
13327;SDS011;6733;51.044;3.746;2023-02-19T06:44:22;9.17;;;3.83;;
13327;SDS011;6733;51.044;3.746;2023-02-19T06:46:49;15.27;;;3.80;;
13327;SDS011;6733;51.044;3.746;2023-02-19T06:49:15;14.43;;;3.73;;
13327;SDS011;6733;51.044;3.746;2023-02-19T06:51:42;7.63;;;3.20;;
13327;SDS011;6733;51.044;3.746;2023-02-19T06:54:08;10.70;;;3.37;;
13327;SDS011;6733;51.044;3.746;2023-02-19T06:56:38;12.57;;;4.80;;
13327;SDS011;6733;51.044;3.746;2023-02-19T06:59:06;12.27;;;3.37;;
13327;SDS011;6733;51.044;3.746;2023-02-19T07:01:34;13.17;;;3.60;;
13327;SDS011;6733;51.044;3.746;2023-02-19T07:04:02;10.83;;;3.20;;
13327;SDS011;6733;51.044;3.746;2023-02-19T07:06:29;10.07;;;3.40;;
13327;SDS011;6733;51.044;3.746;2023-02-19T07:08:56;8.77;;;3.10;;
13327;SDS011;6733;51.044;3.746;2023-02-19T07:11:23;12.87;;;4.00;;
13327;SDS011;6733;51.044;3.746;2023-02-19T07:13:56;9.20;;;2.90;;
13327;SDS011;6733;51.044;3.746;2023-02-19T07:16:23;9.33;;;3.40;;
13327;SDS011;6733;51.044;3.746;2023-02-19T07:18:49;9.47;;;3.40;;
13327;SDS011;6733;51.044;3.746;2023-02-19T07:21:16;11.67;;;3.53;;
13327;SDS011;6733;51.044;3.746;2023-02-19T07:23:43;10.97;;;3.30;;
13327;SDS011;6733;51.044;3.746;2023-02-19T07:26:10;6.40;;;2.93;;
13327;SDS011;6733;51.044;3.746;2023-02-19T07:28:44;13.00;;;3.63;;
13327;SDS011;6733;51.044;3.746;2023-02-19T07:31:12;10.37;;;3.13;;
13327;SDS011;6733;51.044;3.746;2023-02-19T07:33:41;12.67;;;3.50;;
13327;SDS011;6733;51.044;3.746;2023-02-19T07:36:09;11.33;;;3.80;;
13327;SDS011;6733;51.044;3.746;2023-02-19T07:38:35;10.67;;;3.50;;
13327;SDS011;6733;51.044;3.746;2023-02-19T07:41:02;12.13;;;2.97;;
13327;SDS011;6733;51.044;3.746;2023-02-19T07:43:31;12.43;;;4.27;;
13327;SDS011;6733;51.044;3.746;2023-02-19T07:46:06;12.53;;;3.50;;
13327;SDS011;6733;51.044;3.746;2023-02-19T07:48:34;10.53;;;3.43;;
13327;SDS011;6733;51.044;3.746;2023-02-19T07:51:02;11.00;;;3.30;;
13327;SDS011;6733;51.044;3.746;2023-02-19T07:53:29;12.10;;;3.63;;
13327;SDS011;6733;51.044;3.746;2023-02-19T07:56:00;12.70;;;3.27;;
13327;SDS011;6733;51.044;3.746;2023-02-19T07:58:28;8.80;;;3.30;;
13327;SDS011;6733;51.044;3.746;2023-02-19T08:00:55;10.90;;;3.23;;
13327;SDS011;6733;51.044;3.746;2023-02-19T08:03:22;11.20;;;3.83;;
13327;SDS011;6733;51.044;3.746;2023-02-19T08:05:48;8.23;;;3.27;;
13327;SDS011;6733;51.044;3.746;2023-02-19T08:08:15;10.73;;;3.40;;
13327;SDS011;6733;51.044;3.746;2023-02-19T08:10:42;11.70;;;3.23;;
13327;SDS011;6733;51.044;3.746;2023-02-19T08:13:27;9.20;;;3.33;;
13327;SDS011;6733;51.044;3.746;2023-02-19T08:18:28;9.30;;;3.47;;
13327;SDS011;6733;51.044;3.746;2023-02-19T08:20:56;10.53;;;3.10;;
13327;SDS011;6733;51.044;3.746;2023-02-19T08:23:23;10.43;;;3.23;;
13327;SDS011;6733;51.044;3.746;2023-02-19T08:25:50;12.77;;;3.60;;
13327;SDS011;6733;51.044;3.746;2023-02-19T08:28:18;11.83;;;3.43;;
13327;SDS011;6733;51.044;3.746;2023-02-19T08:30:45;12.23;;;3.97;;
13327;SDS011;6733;51.044;3.746;2023-02-19T08:33:12;13.77;;;3.50;;
13327;SDS011;6733;51.044;3.746;2023-02-19T08:35:41;8.13;;;3.53;;
13327;SDS011;6733;51.044;3.746;2023-02-19T08:38:08;9.87;;;3.40;;
13327;SDS011;6733;51.044;3.746;2023-02-19T08:40:38;8.80;;;2.97;;
13327;SDS011;6733;51.044;3.746;2023-02-19T08:43:09;11.63;;;3.30;;
13327;SDS011;6733;51.044;3.746;2023-02-19T08:45:37;10.47;;;3.57;;
13327;SDS011;6733;51.044;3.746;2023-02-19T08:48:04;11.97;;;3.27;;
13327;SDS011;6733;51.044;3.746;2023-02-19T08:50:30;9.70;;;3.37;;
13327;SDS011;6733;51.044;3.746;2023-02-19T08:53:00;11.03;;;2.93;;
13327;SDS011;6733;51.044;3.746;2023-02-19T08:55:27;9.87;;;3.20;;
13327;SDS011;6733;51.044;3.746;2023-02-19T08:57:53;11.20;;;3.40;;
13327;SDS011;6733;51.044;3.746;2023-02-19T09:00:20;10.03;;;2.97;;
13327;SDS011;6733;51.044;3.746;2023-02-19T09:02:46;9.77;;;3.00;;
13327;SDS011;6733;51.044;3.746;2023-02-19T09:05:13;10.80;;;3.20;;
13327;SDS011;6733;51.044;3.746;2023-02-19T09:07:40;8.73;;;3.70;;
13327;SDS011;6733;51.044;3.746;2023-02-19T09:10:08;8.10;;;3.67;;
13327;SDS011;6733;51.044;3.746;2023-02-19T09:12:35;9.47;;;3.50;;
13327;SDS011;6733;51.044;3.746;2023-02-19T09:15:03;8.70;;;3.03;;
13327;SDS011;6733;51.044;3.746;2023-02-19T09:17:29;9.97;;;3.47;;
13327;SDS011;6733;51.044;3.746;2023-02-19T09:19:56;12.17;;;3.67;;
13327;SDS011;6733;51.044;3.746;2023-02-19T09:22:22;12.50;;;3.00;;
13327;SDS011;6733;51.044;3.746;2023-02-19T09:24:48;8.93;;;3.07;;
13327;SDS011;6733;51.044;3.746;2023-02-19T09:27:15;12.10;;;3.30;;
13327;SDS011;6733;51.044;3.746;2023-02-19T09:29:42;11.03;;;3.23;;
13327;SDS011;6733;51.044;3.746;2023-02-19T09:32:08;7.73;;;3.30;;
13327;SDS011;6733;51.044;3.746;2023-02-19T09:34:35;8.90;;;3.43;;
13327;SDS011;6733;51.044;3.746;2023-02-19T09:37:06;10.13;;;3.20;;
13327;SDS011;6733;51.044;3.746;2023-02-19T09:39:33;11.17;;;3.27;;
13327;SDS011;6733;51.044;3.746;2023-02-19T09:42:01;9.53;;;3.70;;
13327;SDS011;6733;51.044;3.746;2023-02-19T09:44:41;8.63;;;3.60;;
13327;SDS011;6733;51.044;3.746;2023-02-19T09:47:19;8.90;;;4.13;;
13327;SDS011;6733;51.044;3.746;2023-02-19T09:49:47;12.47;;;3.77;;
13327;SDS011;6733;51.044;3.746;2023-02-19T09:52:34;8.43;;;3.40;;
13327;SDS011;6733;51.044;3.746;2023-02-19T09:55:24;9.33;;;3.20;;
13327;SDS011;6733;51.044;3.746;2023-02-19T09:58:05;7.87;;;3.20;;
13327;SDS011;6733;51.044;3.746;2023-02-19T10:00:46;10.07;;;3.40;;
13327;SDS011;6733;51.044;3.746;2023-02-19T10:03:21;8.07;;;3.17;;
13327;SDS011;6733;51.044;3.746;2023-02-19T10:05:57;9.00;;;3.50;;
13327;SDS011;6733;51.044;3.746;2023-02-19T10:08:26;8.30;;;3.07;;
13327;SDS011;6733;51.044;3.746;2023-02-19T10:10:55;13.90;;;3.50;;
13327;SDS011;6733;51.044;3.746;2023-02-19T10:13:22;9.73;;;3.17;;
13327;SDS011;6733;51.044;3.746;2023-02-19T10:15:55;9.37;;;4.53;;
13327;SDS011;6733;51.044;3.746;2023-02-19T10:18:24;8.07;;;3.40;;
13327;SDS011;6733;51.044;3.746;2023-02-19T10:20:53;9.93;;;4.13;;
13327;SDS011;6733;51.044;3.746;2023-02-19T10:23:20;5.50;;;3.57;;
13327;SDS011;6733;51.044;3.746;2023-02-19T10:25:56;10.20;;;3.47;;
13327;SDS011;6733;51.044;3.746;2023-02-19T10:28:28;7.63;;;4.27;;
13327;SDS011;6733;51.044;3.746;2023-02-19T10:30:58;11.37;;;3.50;;
13327;SDS011;6733;51.044;3.746;2023-02-19T10:33:27;9.17;;;3.87;;
13327;SDS011;6733;51.044;3.746;2023-02-19T10:36:03;10.27;;;3.20;;
13327;SDS011;6733;51.044;3.746;2023-02-19T10:38:36;8.17;;;3.30;;
13327;SDS011;6733;51.044;3.746;2023-02-19T10:41:14;9.20;;;3.20;;
13327;SDS011;6733;51.044;3.746;2023-02-19T10:43:51;8.17;;;2.70;;
13327;SDS011;6733;51.044;3.746;2023-02-19T10:46:28;7.33;;;3.73;;
13327;SDS011;6733;51.044;3.746;2023-02-19T10:48:58;9.67;;;3.50;;
13327;SDS011;6733;51.044;3.746;2023-02-19T10:51:31;8.03;;;3.40;;
13327;SDS011;6733;51.044;3.746;2023-02-19T10:56:44;10.80;;;3.57;;
13327;SDS011;6733;51.044;3.746;2023-02-19T11:05:01;7.67;;;3.10;;
13327;SDS011;6733;51.044;3.746;2023-02-19T11:07:27;6.53;;;3.10;;
13327;SDS011;6733;51.044;3.746;2023-02-19T11:09:54;5.73;;;3.50;;
13327;SDS011;6733;51.044;3.746;2023-02-19T11:12:30;10.03;;;3.57;;
13327;SDS011;6733;51.044;3.746;2023-02-19T11:17:43;7.10;;;2.70;;
13327;SDS011;6733;51.044;3.746;2023-02-19T11:20:13;7.80;;;3.40;;
13327;SDS011;6733;51.044;3.746;2023-02-19T11:22:42;7.47;;;2.70;;
13327;SDS011;6733;51.044;3.746;2023-02-19T11:30:33;6.57;;;2.60;;
13327;SDS011;6733;51.044;3.746;2023-02-19T11:35:44;4.80;;;2.70;;
13327;SDS011;6733;51.044;3.746;2023-02-19T11:38:12;5.20;;;2.53;;
13327;SDS011;6733;51.044;3.746;2023-02-19T11:41:02;6.63;;;3.07;;
13327;SDS011;6733;51.044;3.746;2023-02-19T11:57:42;6.17;;;2.80;;
13327;SDS011;6733;51.044;3.746;2023-02-19T12:00:40;6.23;;;2.73;;
13327;SDS011;6733;51.044;3.746;2023-02-19T12:22:29;4.60;;;2.60;;
13327;SDS011;6733;51.044;3.746;2023-02-19T12:25:06;6.63;;;3.20;;
13327;SDS011;6733;51.044;3.746;2023-02-19T12:27:53;5.23;;;2.80;;
13327;SDS011;6733;51.044;3.746;2023-02-19T12:30:47;6.50;;;2.80;;
13327;SDS011;6733;51.044;3.746;2023-02-19T12:36:31;3.37;;;2.30;;
13327;SDS011;6733;51.044;3.746;2023-02-19T12:44:15;7.07;;;2.47;;
13327;SDS011;6733;51.044;3.746;2023-02-19T12:46:55;5.47;;;2.40;;
13327;SDS011;6733;51.044;3.746;2023-02-19T12:52:27;8.30;;;3.10;;
13327;SDS011;6733;51.044;3.746;2023-02-19T12:55:12;3.83;;;2.77;;
13327;SDS011;6733;51.044;3.746;2023-02-19T12:57:47;4.43;;;2.40;;
13327;SDS011;6733;51.044;3.746;2023-02-19T13:00:32;5.17;;;2.50;;
13327;SDS011;6733;51.044;3.746;2023-02-19T13:08:38;4.13;;;2.30;;
13327;SDS011;6733;51.044;3.746;2023-02-19T13:13:46;3.07;;;2.50;;
13327;SDS011;6733;51.044;3.746;2023-02-19T13:16:17;10.67;;;2.70;;
13327;SDS011;6733;51.044;3.746;2023-02-19T13:18:46;3.83;;;2.57;;
13327;SDS011;6733;51.044;3.746;2023-02-19T13:21:24;5.33;;;2.50;;
13327;SDS011;6733;51.044;3.746;2023-02-19T13:24:14;6.10;;;2.70;;
13327;SDS011;6733;51.044;3.746;2023-02-19T13:26:50;5.73;;;2.80;;
13327;SDS011;6733;51.044;3.746;2023-02-19T13:35:24;7.27;;;3.43;;
13327;SDS011;6733;51.044;3.746;2023-02-19T13:38:10;5.20;;;3.40;;
13327;SDS011;6733;51.044;3.746;2023-02-19T13:40:38;4.80;;;2.80;;
13327;SDS011;6733;51.044;3.746;2023-02-19T13:43:18;7.97;;;3.20;;
13327;SDS011;6733;51.044;3.746;2023-02-19T13:45:57;6.03;;;3.07;;
13327;SDS011;6733;51.044;3.746;2023-02-19T13:48:27;6.10;;;3.33;;
13327;SDS011;6733;51.044;3.746;2023-02-19T14:09:50;7.17;;;3.90;;
13327;SDS011;6733;51.044;3.746;2023-02-19T14:14:47;7.70;;;3.50;;
13327;SDS011;6733;51.044;3.746;2023-02-19T14:27:59;7.93;;;3.80;;
13327;SDS011;6733;51.044;3.746;2023-02-19T14:30:25;9.23;;;4.13;;
13327;SDS011;6733;51.044;3.746;2023-02-19T14:32:52;7.73;;;4.47;;
13327;SDS011;6733;51.044;3.746;2023-02-19T14:35:19;6.23;;;3.93;;
13327;SDS011;6733;51.044;3.746;2023-02-19T14:37:49;5.80;;;4.00;;
13327;SDS011;6733;51.044;3.746;2023-02-19T14:40:19;8.13;;;4.43;;
13327;SDS011;6733;51.044;3.746;2023-02-19T14:42:48;7.63;;;3.97;;
13327;SDS011;6733;51.044;3.746;2023-02-19T14:45:17;9.47;;;4.00;;
13327;SDS011;6733;51.044;3.746;2023-02-19T14:47:45;7.20;;;4.33;;
13327;SDS011;6733;51.044;3.746;2023-02-19T14:52:52;5.67;;;4.03;;
13327;SDS011;6733;51.044;3.746;2023-02-19T14:55:32;5.43;;;3.93;;
13327;SDS011;6733;51.044;3.746;2023-02-19T14:58:05;5.57;;;4.00;;
13327;SDS011;6733;51.044;3.746;2023-02-19T15:00:42;6.93;;;4.13;;
13327;SDS011;6733;51.044;3.746;2023-02-19T15:06:10;7.13;;;4.40;;
13327;SDS011;6733;51.044;3.746;2023-02-19T15:08:41;6.63;;;4.10;;
13327;SDS011;6733;51.044;3.746;2023-02-19T15:11:13;10.07;;;4.27;;
13327;SDS011;6733;51.044;3.746;2023-02-19T15:13:46;7.07;;;4.60;;
13327;SDS011;6733;51.044;3.746;2023-02-19T15:16:16;8.60;;;4.90;;
13327;SDS011;6733;51.044;3.746;2023-02-19T15:18:44;7.60;;;5.07;;
13327;SDS011;6733;51.044;3.746;2023-02-19T15:23:49;12.17;;;4.93;;
13327;SDS011;6733;51.044;3.746;2023-02-19T15:26:19;12.37;;;5.50;;
13327;SDS011;6733;51.044;3.746;2023-02-19T15:28:55;9.27;;;4.90;;
13327;SDS011;6733;51.044;3.746;2023-02-19T15:31:26;6.27;;;4.57;;
13327;SDS011;6733;51.044;3.746;2023-02-19T15:33:52;12.03;;;5.10;;
13327;SDS011;6733;51.044;3.746;2023-02-19T15:36:26;8.20;;;4.80;;
13327;SDS011;6733;51.044;3.746;2023-02-19T15:38:55;14.47;;;7.60;;
13327;SDS011;6733;51.044;3.746;2023-02-19T15:41:25;8.63;;;4.83;;
13327;SDS011;6733;51.044;3.746;2023-02-19T15:44:01;6.67;;;4.57;;
13327;SDS011;6733;51.044;3.746;2023-02-19T15:47:01;6.97;;;4.20;;
13327;SDS011;6733;51.044;3.746;2023-02-19T15:49:58;7.73;;;4.43;;
13327;SDS011;6733;51.044;3.746;2023-02-19T15:52:38;6.03;;;4.03;;
13327;SDS011;6733;51.044;3.746;2023-02-19T15:55:50;6.40;;;3.60;;
13327;SDS011;6733;51.044;3.746;2023-02-19T15:58:30;9.43;;;3.97;;
13327;SDS011;6733;51.044;3.746;2023-02-19T16:01:10;14.57;;;6.83;;
13327;SDS011;6733;51.044;3.746;2023-02-19T16:03:37;7.80;;;4.17;;
13327;SDS011;6733;51.044;3.746;2023-02-19T16:06:10;9.47;;;5.67;;
13327;SDS011;6733;51.044;3.746;2023-02-19T16:08:42;8.60;;;4.10;;
13327;SDS011;6733;51.044;3.746;2023-02-19T16:16:41;4.40;;;3.77;;
13327;SDS011;6733;51.044;3.746;2023-02-19T16:19:09;6.20;;;4.00;;
13327;SDS011;6733;51.044;3.746;2023-02-19T16:21:35;8.23;;;4.43;;
13327;SDS011;6733;51.044;3.746;2023-02-19T16:27:01;8.60;;;4.47;;
13327;SDS011;6733;51.044;3.746;2023-02-19T16:29:29;8.23;;;4.20;;
13327;SDS011;6733;51.044;3.746;2023-02-19T16:31:58;6.70;;;4.50;;
13327;SDS011;6733;51.044;3.746;2023-02-19T16:34:29;7.43;;;4.67;;
13327;SDS011;6733;51.044;3.746;2023-02-19T16:36:55;6.80;;;4.13;;
13327;SDS011;6733;51.044;3.746;2023-02-19T16:39:22;8.67;;;4.20;;
13327;SDS011;6733;51.044;3.746;2023-02-19T16:46:50;7.00;;;3.60;;
13327;SDS011;6733;51.044;3.746;2023-02-19T16:49:17;8.23;;;4.50;;
13327;SDS011;6733;51.044;3.746;2023-02-19T16:51:44;8.03;;;4.17;;
13327;SDS011;6733;51.044;3.746;2023-02-19T16:54:11;6.73;;;3.93;;
13327;SDS011;6733;51.044;3.746;2023-02-19T16:56:38;8.27;;;3.67;;
13327;SDS011;6733;51.044;3.746;2023-02-19T16:59:04;6.47;;;3.67;;
13327;SDS011;6733;51.044;3.746;2023-02-19T17:01:34;5.43;;;4.00;;
13327;SDS011;6733;51.044;3.746;2023-02-19T17:04:08;6.07;;;3.60;;
13327;SDS011;6733;51.044;3.746;2023-02-19T17:06:36;6.27;;;3.80;;
13327;SDS011;6733;51.044;3.746;2023-02-19T17:09:04;6.57;;;4.00;;
13327;SDS011;6733;51.044;3.746;2023-02-19T17:11:32;7.50;;;3.97;;
13327;SDS011;6733;51.044;3.746;2023-02-19T17:13:59;5.70;;;3.90;;
13327;SDS011;6733;51.044;3.746;2023-02-19T17:16:26;9.73;;;4.13;;
13327;SDS011;6733;51.044;3.746;2023-02-19T17:18:56;9.07;;;4.20;;
13327;SDS011;6733;51.044;3.746;2023-02-19T17:21:24;9.90;;;5.33;;
13327;SDS011;6733;51.044;3.746;2023-02-19T17:23:53;10.27;;;4.80;;
13327;SDS011;6733;51.044;3.746;2023-02-19T17:26:23;7.97;;;4.67;;
13327;SDS011;6733;51.044;3.746;2023-02-19T17:29:00;8.83;;;4.53;;
13327;SDS011;6733;51.044;3.746;2023-02-19T17:31:28;6.20;;;4.37;;
13327;SDS011;6733;51.044;3.746;2023-02-19T17:33:54;8.93;;;4.90;;
13327;SDS011;6733;51.044;3.746;2023-02-19T17:36:22;7.67;;;4.60;;
13327;SDS011;6733;51.044;3.746;2023-02-19T17:38:51;6.67;;;3.93;;
13327;SDS011;6733;51.044;3.746;2023-02-19T17:41:19;6.70;;;4.50;;
13327;SDS011;6733;51.044;3.746;2023-02-19T17:43:45;6.70;;;4.67;;
13327;SDS011;6733;51.044;3.746;2023-02-19T17:46:13;8.00;;;4.63;;
13327;SDS011;6733;51.044;3.746;2023-02-19T17:48:40;6.43;;;4.40;;
13327;SDS011;6733;51.044;3.746;2023-02-19T17:51:06;8.23;;;4.93;;
13327;SDS011;6733;51.044;3.746;2023-02-19T17:53:32;7.50;;;4.30;;
13327;SDS011;6733;51.044;3.746;2023-02-19T17:55:58;6.43;;;4.80;;
13327;SDS011;6733;51.044;3.746;2023-02-19T17:58:24;6.77;;;4.70;;
13327;SDS011;6733;51.044;3.746;2023-02-19T18:00:51;7.67;;;5.23;;
13327;SDS011;6733;51.044;3.746;2023-02-19T18:03:17;7.27;;;4.50;;